Time;durP1;ratioP1;P1;durP2;ratioP2;P2;SDS_P1;SDS_P2;PMS_P1;PMS_P2;Temp;Humidity;BMP_temperature;BMP_pressure;BME280_temperature;BME280_humidity;BME280_pressure;Samples;Min_cycle;Max_cycle;Signal;HPM_P1;HPM_P2
2023/03/15 00:00:47;;;;;;;7.53;4.43;;;;;;;18.01;47.57;96498.69;4971124;28;20239;-92
2023/03/15 00:03:14;;;;;;;5.63;3.60;;;;;;;18.57;47.73;96594.31;4971627;28;20315;-92
2023/03/15 00:05:42;;;;;;;8.27;4.23;;;;;;;19.00;47.69;96685.34;4956723;28;20222;-93
2023/03/15 00:08:08;;;;;;;7.53;4.57;;;;;;;18.95;47.73;96666.56;4939204;28;20199;-92
2023/03/15 00:10:35;;;;;;;5.87;4.20;;;;;;;18.82;47.63;96654.31;4941765;28;20227;-92
2023/03/15 00:13:01;;;;;;;7.33;4.10;;;;;;;19.39;47.72;96748.41;4958783;28;20202;-93
2023/03/15 00:15:28;;;;;;;7.17;4.17;;;;;;;17.93;47.71;96510.31;4967801;28;20214;-93
2023/03/15 00:17:55;;;;;;;7.90;4.20;;;;;;;18.25;47.80;96564.56;4937116;28;20517;-92
2023/03/15 00:20:21;;;;;;;6.97;4.43;;;;;;;18.98;47.67;96685.31;4956084;28;20226;-92
2023/03/15 00:22:48;;;;;;;7.73;3.97;;;;;;;17.79;47.86;96483.66;4937130;28;20220;-93
2023/03/15 00:25:14;;;;;;;6.97;4.20;;;;;;;18.63;47.71;96619.91;4961262;28;20687;-92
2023/03/15 00:27:41;;;;;;;8.50;4.80;;;;;;;17.44;47.83;96414.94;4958630;28;20337;-93
2023/03/15 00:30:08;;;;;;;6.73;4.33;;;;;;;18.23;47.62;96562.00;4965760;28;20287;-93
2023/03/15 00:32:35;;;;;;;6.13;4.17;;;;;;;18.99;47.97;96706.53;4954480;28;20199;-92
2023/03/15 00:35:01;;;;;;;6.17;3.60;;;;;;;18.77;47.75;96666.09;4956206;28;20200;-92
2023/03/15 00:37:29;;;;;;;6.77;4.07;;;;;;;18.81;47.68;96670.41;4956233;28;20213;-92
2023/03/15 00:39:55;;;;;;;7.37;3.73;;;;;;;18.62;47.69;96648.69;4941835;28;20313;-92
2023/03/15 00:42:26;;;;;;;6.00;4.03;;;;;;;19.33;47.87;96773.72;4942375;28;20306;-92
2023/03/15 00:44:55;;;;;;;6.07;3.90;;;;;;;18.43;47.58;96610.88;4979720;28;20199;-92
2023/03/15 00:47:22;;;;;;;8.50;4.27;;;;;;;18.47;47.71;96632.19;4958209;28;20305;-92
2023/03/15 00:49:49;;;;;;;7.07;4.00;;;;;;;18.88;47.80;96701.16;4953697;28;20235;-93
2023/03/15 00:52:17;;;;;;;5.87;3.80;;;;;;;18.80;47.52;96699.25;4951210;28;20211;-92
2023/03/15 00:54:43;;;;;;;5.53;3.93;;;;;;;18.59;47.71;96678.31;4939038;28;20227;-92
2023/03/15 00:57:10;;;;;;;5.97;3.90;;;;;;;19.07;48.06;96745.81;4942826;28;20308;-92
2023/03/15 00:59:36;;;;;;;6.23;4.00;;;;;;;18.90;47.73;96713.94;4956898;28;20210;-92
2023/03/15 01:02:04;;;;;;;5.73;3.97;;;;;;;19.19;47.68;96772.44;4973581;28;20211;-92
2023/03/15 01:04:30;;;;;;;4.93;3.60;;;;;;;18.97;47.73;96729.41;4938977;28;20233;-93
2023/03/15 01:06:57;;;;;;;6.90;4.40;;;;;;;18.66;47.63;96673.44;4955267;28;20209;-92
2023/03/15 01:09:24;;;;;;;6.07;3.70;;;;;;;18.75;47.90;96694.03;4957211;28;20238;-92
2023/03/15 01:11:50;;;;;;;7.07;4.10;;;;;;;19.03;47.79;96755.03;4938403;28;20266;-92
2023/03/15 01:14:17;;;;;;;4.50;3.73;;;;;;;18.91;47.71;96731.81;4941747;28;20214;-92
2023/03/15 01:16:44;;;;;;;5.50;4.03;;;;;;;18.27;47.67;96612.09;4958387;28;20207;-92
2023/03/15 01:19:12;;;;;;;5.47;3.90;;;;;;;18.75;47.74;96696.59;4941134;28;20214;-92
2023/03/15 01:21:38;;;;;;;5.67;3.90;;;;;;;18.82;47.71;96700.13;4941937;28;20591;-92
2023/03/15 01:24:05;;;;;;;6.03;3.70;;;;;;;18.69;47.78;96673.53;4954820;28;20223;-92
2023/03/15 01:26:32;;;;;;;4.90;3.60;;;;;;;19.40;47.75;96802.78;4937503;28;20235;-92
2023/03/15 01:28:58;;;;;;;5.70;3.70;;;;;;;18.70;47.87;96715.94;4957525;28;20655;-92
2023/03/15 01:31:26;;;;;;;5.20;4.10;;;;;;;19.15;47.80;96777.41;4956508;28;20322;-92
2023/03/15 01:33:53;;;;;;;5.43;3.70;;;;;;;18.58;47.69;96694.38;4957765;28;20223;-93
2023/03/15 01:36:19;;;;;;;4.60;3.80;;;;;;;18.35;47.71;96664.88;4957303;28;20208;-92
2023/03/15 01:38:48;;;;;;;5.37;3.50;;;;;;;18.67;47.56;96726.03;4957556;28;20199;-92
2023/03/15 01:41:15;;;;;;;4.87;3.67;;;;;;;18.82;47.51;96753.59;4958468;28;20227;-92
2023/03/15 01:43:48;;;;;;;5.23;3.60;;;;;;;18.94;47.64;96771.75;4945118;28;20709;-93
2023/03/15 01:46:45;;;;;;;5.53;3.50;;;;;;;19.40;47.68;96858.81;4960080;28;20203;-92
2023/03/15 01:49:24;;;;;;;5.43;3.17;;;;;;;18.59;47.92;96735.13;4975714;28;20660;-93
2023/03/15 01:52:02;;;;;;;4.30;3.17;;;;;;;18.42;47.71;96707.50;4965290;28;20633;-92
2023/03/15 01:54:29;;;;;;;6.67;3.07;;;;;;;18.83;47.90;96783.34;4975651;28;20278;-92
2023/03/15 01:57:02;;;;;;;3.70;3.20;;;;;;;18.45;47.64;96713.56;4980040;28;20661;-92
2023/03/15 01:59:31;;;;;;;4.47;3.30;;;;;;;18.77;47.67;96772.97;4942380;28;20262;-93
2023/03/15 02:01:57;;;;;;;4.20;3.60;;;;;;;18.86;47.48;96788.50;4945478;28;20199;-92
2023/03/15 02:04:28;;;;;;;6.10;3.60;;;;;;;18.76;47.65;96769.56;4960115;28;20219;-93
2023/03/15 02:06:57;;;;;;;4.20;3.20;;;;;;;18.72;47.73;96782.16;4935491;28;20204;-93
2023/03/15 02:10:07;;;;;;;4.40;3.53;;;;;;;19.39;47.83;96900.41;4961096;28;20214;-92
2023/03/15 02:12:35;;;;;;;4.43;3.13;;;;;;;18.52;47.73;96768.88;4958424;28;20215;-92
2023/03/15 02:15:03;;;;;;;5.07;3.73;;;;;;;18.81;47.62;96823.16;4960851;28;20246;-93
2023/03/15 02:17:40;;;;;;;4.07;2.80;;;;;;;18.27;47.68;96760.44;4942695;28;20302;-92
2023/03/15 02:20:26;;;;;;;3.77;3.20;;;;;;;19.39;47.75;96934.38;4956358;28;20223;-93
2023/03/15 02:22:57;;;;;;;4.53;3.20;;;;;;;18.78;47.72;96820.53;4970917;28;20206;-92
2023/03/15 02:25:44;;;;;;;4.17;3.30;;;;;;;18.65;47.79;96803.19;4954163;28;20679;-92
2023/03/15 02:28:12;;;;;;;4.93;3.30;;;;;;;18.27;47.75;96731.63;4955284;28;20581;-92
2023/03/15 02:30:38;;;;;;;4.10;3.20;;;;;;;18.71;47.79;96816.06;4959333;28;20706;-92
2023/03/15 02:33:08;;;;;;;4.97;3.13;;;;;;;19.38;47.79;96930.13;4944047;28;20298;-93
2023/03/15 02:35:34;;;;;;;4.03;2.90;;;;;;;18.90;48.19;96859.94;4943656;28;20208;-92
2023/03/15 02:38:01;;;;;;;3.93;2.93;;;;;;;18.87;47.95;96874.25;4976193;28;20210;-92
2023/03/15 02:40:28;;;;;;;4.03;3.23;;;;;;;18.44;47.76;96802.56;4942994;28;20266;-92
2023/03/15 02:42:58;;;;;;;4.83;3.30;;;;;;;18.71;47.75;96849.16;4956287;28;20199;-92
2023/03/15 02:45:24;;;;;;;3.93;3.20;;;;;;;18.69;47.77;96854.22;4941154;28;20207;-92
2023/03/15 02:47:51;;;;;;;4.63;3.30;;;;;;;18.51;47.96;96840.06;4959998;28;20245;-92
2023/03/15 02:50:18;;;;;;;6.27;3.13;;;;;;;18.24;47.89;96790.03;4944131;28;20310;-92
2023/03/15 02:52:44;;;;;;;4.30;3.13;;;;;;;18.78;48.13;96895.22;4956061;28;20214;-93
2023/03/15 02:55:11;;;;;;;5.50;3.40;;;;;;;18.76;47.75;96898.50;4939404;28;20245;-93
2023/03/15 02:57:37;;;;;;;3.23;2.77;;;;;;;18.99;47.68;96959.50;4956351;28;20207;-92
2023/03/15 03:00:13;;;;;;;5.70;3.37;;;;;;;18.45;47.81;96855.16;4959344;28;20235;-92
2023/03/15 03:02:40;;;;;;;3.90;2.90;;;;;;;18.96;47.78;96958.53;4959339;28;20215;-92
2023/03/15 03:05:07;;;;;;;3.10;2.63;;;;;;;18.86;47.88;96954.00;4956291;28;20223;-92
2023/03/15 03:07:34;;;;;;;3.53;2.87;;;;;;;18.37;47.52;96887.06;4959497;28;20244;-92
2023/03/15 03:10:01;;;;;;;3.57;2.97;;;;;;;18.50;47.86;96907.03;4975402;28;20227;-92
2023/03/15 03:12:28;;;;;;;3.67;3.00;;;;;;;17.81;47.76;96781.91;4958734;28;20242;-93
2023/03/15 03:14:55;;;;;;;3.27;2.53;;;;;;;18.50;47.76;96899.41;4955740;28;20214;-93
2023/03/15 03:17:22;;;;;;;4.33;3.07;;;;;;;18.37;47.69;96884.53;4975702;28;20230;-91
2023/03/15 03:19:49;;;;;;;3.93;3.10;;;;;;;18.90;47.82;96996.53;4943712;28;20218;-92
2023/03/15 03:22:15;;;;;;;4.97;3.10;;;;;;;18.83;47.94;96980.19;4952277;28;20211;-92
2023/03/15 03:24:44;;;;;;;3.67;2.73;;;;;;;18.23;47.71;96895.13;4971779;28;20227;-92
2023/03/15 03:27:14;;;;;;;3.20;2.90;;;;;;;18.91;47.87;97019.50;4955259;28;20675;-92
2023/03/15 03:29:40;;;;;;;4.27;2.80;;;;;;;18.93;47.91;97033.16;4943265;28;20222;-92
2023/03/15 03:32:07;;;;;;;3.17;2.70;;;;;;;19.20;47.80;97077.31;4959659;28;20235;-92
2023/03/15 03:34:34;;;;;;;3.03;2.63;;;;;;;18.79;48.00;97023.31;4957014;28;20207;-92
2023/03/15 03:37:01;;;;;;;3.63;2.70;;;;;;;18.82;47.63;97034.47;4975040;28;20214;-92
2023/03/15 03:39:27;;;;;;;3.90;2.87;;;;;;;18.27;47.81;96940.19;4941839;28;20667;-93
2023/03/15 03:41:54;;;;;;;3.73;2.90;;;;;;;18.76;47.71;97028.31;4959244;28;20713;-92
2023/03/15 03:44:20;;;;;;;3.97;2.80;;;;;;;18.75;48.05;97047.84;4959589;28;20230;-93
2023/03/15 03:46:47;;;;;;;3.87;2.77;;;;;;;18.70;48.02;97026.44;4958457;28;20211;-93
2023/03/15 03:49:13;;;;;;;5.20;3.20;;;;;;;18.55;47.89;97002.19;4971599;28;20218;-93
2023/03/15 03:51:40;;;;;;;3.37;2.60;;;;;;;18.94;48.08;97083.25;4989795;28;20678;-92
2023/03/15 03:54:06;;;;;;;3.73;2.83;;;;;;;18.79;47.65;97058.97;4957802;28;20242;-92
2023/03/15 03:56:33;;;;;;;3.87;2.37;;;;;;;18.66;47.79;97034.81;4941818;28;20203;-92
2023/03/15 03:59:00;;;;;;;3.73;2.90;;;;;;;18.57;47.81;97024.34;4955438;28;20235;-92
2023/03/15 04:01:26;;;;;;;3.13;2.47;;;;;;;18.75;47.81;97067.31;4942157;28;20329;-92
2023/03/15 04:03:53;;;;;;;3.83;3.10;;;;;;;18.88;47.71;97085.59;4953830;28;20246;-92
2023/03/15 04:06:21;;;;;;;2.83;2.40;;;;;;;18.63;48.11;97052.53;4976237;28;20242;-92
2023/03/15 04:08:47;;;;;;;3.60;2.40;;;;;;;18.75;47.66;97095.31;4940901;28;20212;-92
2023/03/15 04:11:16;;;;;;;3.90;2.43;;;;;;;18.71;48.41;97076.53;4954685;28;20219;-92
2023/03/15 04:13:44;;;;;;;3.73;2.73;;;;;;;19.15;47.97;97165.44;4945421;28;20667;-92
2023/03/15 04:16:11;;;;;;;2.50;2.30;;;;;;;18.64;47.83;97082.25;4939720;28;20217;-92
2023/03/15 04:18:39;;;;;;;3.10;2.47;;;;;;;18.58;47.95;97076.94;4943080;28;20211;-92
2023/03/15 04:21:09;;;;;;;2.90;2.50;;;;;;;18.75;47.93;97102.97;4941386;28;20742;-92
2023/03/15 04:23:36;;;;;;;2.93;2.50;;;;;;;18.37;47.73;97049.88;4932806;28;20739;-93
2023/03/15 04:26:04;;;;;;;4.13;2.70;;;;;;;18.97;47.90;97156.31;4949205;28;20601;-93
2023/03/15 04:28:31;;;;;;;3.27;2.90;;;;;;;17.71;47.97;96929.78;4948936;28;20294;-92
2023/03/15 04:30:57;;;;;;;3.70;2.73;;;;;;;18.74;48.09;97125.00;4954691;28;20258;-93
2023/03/15 04:33:24;;;;;;;2.90;2.50;;;;;;;18.30;47.79;97055.56;4973621;28;21513;-92
2023/03/15 04:35:54;;;;;;;2.50;2.30;;;;;;;19.16;48.15;97230.84;4947164;28;20210;-92
2023/03/15 04:38:25;;;;;;;3.13;2.57;;;;;;;19.22;48.19;97231.03;4955756;28;20235;-92
2023/03/15 04:40:56;;;;;;;2.60;2.30;;;;;;;18.34;48.16;97096.44;4968394;28;20315;-92
2023/03/15 04:43:23;;;;;;;3.13;2.43;;;;;;;19.34;48.00;97258.66;4974978;28;20207;-92
2023/03/15 04:45:50;;;;;;;3.67;2.27;;;;;;;18.64;48.01;97150.06;4967320;28;20620;-92
2023/03/15 04:48:17;;;;;;;2.77;2.30;;;;;;;18.93;48.04;97202.88;4937762;28;20297;-93
2023/03/15 04:50:43;;;;;;;2.93;2.37;;;;;;;19.38;48.66;97286.84;4953860;28;20238;-92
2023/03/15 04:53:10;;;;;;;2.97;2.33;;;;;;;19.00;47.49;97240.44;4984803;28;20211;-92
2023/03/15 04:55:36;;;;;;;3.07;2.40;;;;;;;18.91;47.68;97213.00;4954254;28;20222;-92
2023/03/15 04:58:03;;;;;;;2.33;2.13;;;;;;;18.75;47.78;97192.94;4936704;28;20242;-91
2023/03/15 05:00:30;;;;;;;2.87;2.60;;;;;;;18.80;47.88;97205.81;4948665;28;20833;-92
2023/03/15 05:02:57;;;;;;;2.50;2.20;;;;;;;18.53;47.63;97162.44;4952225;28;20215;-91
2023/03/15 05:05:23;;;;;;;2.57;2.30;;;;;;;18.56;47.84;97159.16;4945522;28;20219;-88
2023/03/15 05:07:50;;;;;;;4.67;2.30;;;;;;;18.88;47.73;97229.84;4954302;28;20198;-91
2023/03/15 05:10:17;;;;;;;3.63;2.53;;;;;;;18.34;47.78;97146.44;4948749;28;20602;-91
2023/03/15 05:12:43;;;;;;;2.63;2.30;;;;;;;18.41;48.17;97148.44;4955248;28;20203;-89
2023/03/15 05:15:10;;;;;;;5.50;2.53;;;;;;;18.77;47.54;97220.97;4985568;28;20199;-89
2023/03/15 05:17:37;;;;;;;3.33;2.50;;;;;;;18.83;47.61;97239.03;4957127;28;20238;-90
2023/03/15 05:20:09;;;;;;;5.00;2.73;;;;;;;18.72;47.60;97217.41;4958545;28;20317;-90
2023/03/15 05:22:36;;;;;;;2.87;2.30;;;;;;;18.76;47.50;97224.31;4944257;28;20215;-90
2023/03/15 05:25:03;;;;;;;3.93;2.20;;;;;;;19.38;47.65;97339.47;4937549;28;20231;-91
2023/03/15 05:27:32;;;;;;;6.17;2.57;;;;;;;18.84;47.94;97246.72;4989326;28;20207;-91
2023/03/15 05:30:01;;;;;;;3.73;2.27;;;;;;;19.19;47.53;97332.84;4956504;28;20323;-91
2023/03/15 05:32:33;;;;;;;7.93;3.43;;;;;;;19.14;47.08;97330.94;4956842;28;20217;-91
2023/03/15 05:35:00;;;;;;;6.37;3.00;;;;;;;18.91;47.22;97275.78;4968901;28;20238;-92
2023/03/15 05:37:27;;;;;;;5.80;3.40;;;;;;;18.56;47.13;97225.31;4944757;28;20218;-91
2023/03/15 05:39:53;;;;;;;3.93;3.10;;;;;;;18.08;46.90;97155.66;4957993;28;20956;-91
2023/03/15 05:42:24;;;;;;;3.73;3.20;;;;;;;18.73;47.16;97259.84;4981613;28;20580;-90
2023/03/15 05:44:52;;;;;;;3.53;2.73;;;;;;;18.66;47.29;97263.88;4961968;28;20227;-92
2023/03/15 05:47:19;;;;;;;4.20;3.10;;;;;;;19.38;47.19;97390.44;4944197;28;20290;-91
2023/03/15 05:49:45;;;;;;;5.40;3.10;;;;;;;18.92;47.19;97323.38;4974862;28;20231;-91
2023/03/15 05:52:12;;;;;;;4.10;3.07;;;;;;;19.27;47.36;97379.88;4946799;28;20203;-91
2023/03/15 05:54:38;;;;;;;3.20;2.83;;;;;;;18.86;47.78;97305.31;4945800;28;20958;-90
2023/03/15 05:57:05;;;;;;;4.93;3.00;;;;;;;18.52;47.74;97241.25;4939937;28;20207;-91
2023/03/15 05:59:32;;;;;;;4.17;2.90;;;;;;;18.56;47.10;97251.59;4957268;28;20203;-88
2023/03/15 06:01:58;;;;;;;3.27;2.50;;;;;;;16.94;47.05;96981.06;4964933;28;20214;-87
2023/03/15 06:04:25;;;;;;;3.90;3.10;;;;;;;19.27;46.97;97379.03;4973028;28;20223;-89
2023/03/15 06:06:51;;;;;;;4.43;3.03;;;;;;;19.20;47.05;97370.25;4963203;28;20754;-91
2023/03/15 06:09:18;;;;;;;3.33;2.80;;;;;;;18.95;46.80;97346.41;4956830;28;20215;-91
2023/03/15 06:11:45;;;;;;;3.43;2.93;;;;;;;18.61;46.76;97275.56;4962824;28;20558;-91
2023/03/15 06:14:11;;;;;;;4.23;2.90;;;;;;;17.80;46.67;97150.38;4959301;28;20291;-91
2023/03/15 06:16:38;;;;;;;5.37;2.70;;;;;;;18.95;46.70;97333.66;4943997;28;20215;-92
2023/03/15 06:19:05;;;;;;;4.97;3.20;;;;;;;18.30;46.83;97229.41;4941196;28;20230;-92
2023/03/15 06:21:31;;;;;;;7.37;2.80;;;;;;;18.23;46.87;97218.13;4956542;28;20238;-91
2023/03/15 06:23:58;;;;;;;3.53;2.87;;;;;;;19.10;46.98;97385.16;4940535;28;20636;-92
2023/03/15 06:26:24;;;;;;;4.87;3.27;;;;;;;18.53;46.88;97268.47;4959612;28;20215;-91
2023/03/15 06:28:51;;;;;;;5.00;4.03;;;;;;;18.96;46.12;97350.66;4957695;28;20203;-92
2023/03/15 06:31:17;;;;;;;6.20;4.10;;;;;;;18.63;44.86;97275.59;4954294;28;20230;-92
2023/03/15 06:33:44;;;;;;;6.87;4.40;;;;;;;18.92;43.09;97336.09;4948504;28;20282;-91
2023/03/15 06:36:11;;;;;;;6.73;4.10;;;;;;;19.12;42.27;97380.97;4957994;28;20282;-93
2023/03/15 06:38:38;;;;;;;3.83;3.30;;;;;;;18.15;41.53;97232.22;4939555;28;20215;-92
2023/03/15 06:41:04;;;;;;;6.57;3.83;;;;;;;18.90;41.44;97350.44;4955560;28;20253;-91
2023/03/15 06:43:31;;;;;;;7.60;4.17;;;;;;;19.09;40.39;97383.41;4975795;28;20298;-90
2023/03/15 06:45:58;;;;;;;5.73;4.03;;;;;;;18.74;40.62;97327.78;4960230;28;20266;-90
2023/03/15 06:48:26;;;;;;;6.07;3.60;;;;;;;18.59;40.77;97310.25;4955313;28;20207;-91
2023/03/15 06:50:53;;;;;;;7.93;3.80;;;;;;;18.33;41.26;97276.97;4944191;28;20250;-91
2023/03/15 06:53:19;;;;;;;7.53;3.50;;;;;;;18.91;41.81;97368.31;4958629;28;20207;-91
2023/03/15 06:55:46;;;;;;;8.63;4.17;;;;;;;19.36;41.89;97443.91;4960913;28;20199;-91
2023/03/15 06:58:12;;;;;;;8.97;4.40;;;;;;;19.09;40.35;97399.56;4957947;28;20207;-91
2023/03/15 07:00:39;;;;;;;5.83;4.10;;;;;;;18.53;40.68;97299.84;4942588;28;20242;-91
2023/03/15 07:03:06;;;;;;;6.77;4.27;;;;;;;18.98;41.09;97388.09;4958715;28;20284;-91
2023/03/15 07:05:32;;;;;;;8.83;3.97;;;;;;;18.50;41.47;97293.78;4962958;28;20229;-92
2023/03/15 07:07:59;;;;;;;6.13;3.93;;;;;;;18.75;41.85;97349.88;4939332;28;20207;-90
2023/03/15 07:10:26;;;;;;;7.37;3.80;;;;;;;17.76;42.27;97166.28;4956004;28;20690;-92
2023/03/15 07:12:52;;;;;;;7.63;3.57;;;;;;;18.90;42.82;97374.25;4958858;28;20207;-91
2023/03/15 07:15:19;;;;;;;7.13;3.80;;;;;;;18.02;42.90;97221.53;4952571;28;20292;-91
2023/03/15 07:17:45;;;;;;;7.50;3.73;;;;;;;18.64;43.11;97331.66;4952686;28;20204;-90
2023/03/15 07:20:12;;;;;;;5.83;3.60;;;;;;;18.95;43.46;97399.88;4969035;28;20250;-91
2023/03/15 07:22:39;;;;;;;5.90;3.40;;;;;;;18.55;43.69;97318.59;4957978;28;20290;-91
2023/03/15 07:25:06;;;;;;;8.03;3.63;;;;;;;18.90;44.07;97384.44;4956861;28;20222;-91
2023/03/15 07:27:33;;;;;;;4.87;3.00;;;;;;;18.09;44.17;97270.16;4937488;28;20214;-90
2023/03/15 07:30:00;;;;;;;4.33;3.03;;;;;;;18.40;44.29;97302.75;4961126;28;20231;-91
2023/03/15 07:32:26;;;;;;;5.27;3.20;;;;;;;18.82;44.80;97374.75;4967893;28;20210;-91
2023/03/15 07:34:57;;;;;;;7.63;3.47;;;;;;;19.05;44.83;97425.75;4938510;28;20207;-91
2023/03/15 07:37:23;;;;;;;6.30;3.00;;;;;;;19.29;44.38;97448.72;4957252;28;20322;-91
2023/03/15 07:39:50;;;;;;;7.20;3.47;;;;;;;18.96;44.47;97401.59;4966249;28;20317;-91
2023/03/15 07:42:16;;;;;;;5.87;3.10;;;;;;;19.40;45.14;97461.06;4971710;28;20210;-92
2023/03/15 07:44:43;;;;;;;4.40;2.77;;;;;;;18.99;44.87;97401.72;4933219;28;20313;-91
2023/03/15 07:47:09;;;;;;;5.43;3.30;;;;;;;18.75;45.06;97360.94;4984426;28;20202;-91
2023/03/15 07:49:36;;;;;;;7.20;3.17;;;;;;;19.41;45.34;97470.44;4970741;28;20889;-91
2023/03/15 07:52:03;;;;;;;7.20;3.03;;;;;;;18.99;45.30;97386.44;4973701;28;20215;-91
2023/03/15 07:54:30;;;;;;;6.10;3.20;;;;;;;18.62;45.35;97329.88;4962914;28;20301;-91
2023/03/15 07:56:57;;;;;;;5.17;2.97;;;;;;;19.63;45.48;97506.09;4942714;28;23495;-91
2023/03/15 07:59:24;;;;;;;4.43;2.83;;;;;;;19.60;45.35;97511.06;4970700;28;20249;-90
2023/03/15 08:01:50;;;;;;;4.03;2.77;;;;;;;19.64;45.17;97512.06;5107331;23;20233;-85
2023/03/15 08:04:17;;;;;;;4.47;2.87;;;;;;;18.73;45.13;97354.03;5016832;28;20426;-85
2023/03/15 08:06:43;;;;;;;3.97;2.60;;;;;;;19.30;45.48;97455.59;5006530;28;20210;-85
2023/03/15 08:09:10;;;;;;;4.67;2.87;;;;;;;19.65;45.36;97518.88;5007206;28;20644;-85
2023/03/15 08:11:37;;;;;;;4.50;2.60;;;;;;;18.90;45.71;97378.44;4995995;28;20754;-84
2023/03/15 08:14:04;;;;;;;4.70;2.80;;;;;;;19.65;45.59;97514.66;4970510;28;20206;-86
2023/03/15 08:16:31;;;;;;;4.20;2.70;;;;;;;19.31;45.82;97457.31;4996558;28;20235;-84
2023/03/15 08:18:57;;;;;;;7.70;3.00;;;;;;;19.34;45.47;97472.72;4989256;28;20644;-86
2023/03/15 08:21:24;;;;;;;6.80;3.10;;;;;;;19.38;45.84;97465.22;4996609;28;20254;-86
2023/03/15 08:23:50;;;;;;;3.60;2.70;;;;;;;19.01;45.29;97400.09;4990552;28;20207;-85
2023/03/15 08:26:17;;;;;;;3.53;2.50;;;;;;;19.68;45.73;97516.44;5004321;28;20234;-85
2023/03/15 08:28:44;;;;;;;5.37;2.80;;;;;;;19.68;45.73;97509.69;5000351;28;20206;-85
2023/03/15 08:31:12;;;;;;;3.50;2.70;;;;;;;18.92;45.57;97381.94;4994538;28;20226;-85
2023/03/15 08:33:39;;;;;;;5.00;2.50;;;;;;;19.69;45.87;97508.84;5000882;28;20205;-84
2023/03/15 08:36:06;;;;;;;5.50;2.40;;;;;;;19.69;45.78;97513.09;4997199;28;20206;-86
2023/03/15 08:38:32;;;;;;;5.03;2.67;;;;;;;18.33;46.00;97276.97;4993170;28;20207;-85
2023/03/15 08:40:59;;;;;;;5.17;2.90;;;;;;;19.35;45.93;97443.84;4994677;28;20257;-85
2023/03/15 08:43:25;;;;;;;4.50;2.87;;;;;;;19.70;45.85;97517.38;4981954;28;20210;-84
2023/03/15 08:45:52;;;;;;;4.23;2.53;;;;;;;19.36;45.48;97454.09;5000128;28;20754;-85
2023/03/15 08:48:27;;;;;;;6.63;3.30;;;;;;;18.78;42.57;97352.53;4986658;28;20692;-85
2023/03/15 08:50:54;;;;;;;4.60;3.00;;;;;;;19.68;42.23;97504.56;5003125;28;20230;-85
2023/03/15 08:53:21;;;;;;;4.53;2.90;;;;;;;18.88;42.50;97373.31;5003013;28;20220;-85
2023/03/15 08:55:48;;;;;;;4.17;2.73;;;;;;;19.69;42.80;97508.00;4991656;28;20215;-85
2023/03/15 08:58:14;;;;;;;4.63;2.80;;;;;;;19.68;43.26;97508.78;4970102;28;20212;-85
2023/03/15 09:00:41;;;;;;;4.90;3.00;;;;;;;19.66;43.24;97511.28;4997797;28;20225;-82
2023/03/15 09:03:08;;;;;;;7.57;2.80;;;;;;;19.67;43.30;97513.03;4997545;28;20689;-85
2023/03/15 09:05:34;;;;;;;6.97;3.10;;;;;;;19.52;43.88;97498.88;5011884;28;20224;-85
2023/03/15 09:08:01;;;;;;;5.77;2.57;;;;;;;19.16;44.13;97431.22;4998969;28;23578;-86
2023/03/15 09:10:27;;;;;;;3.43;2.47;;;;;;;18.35;44.37;97294.03;4995796;28;20673;-85
2023/03/15 09:12:54;;;;;;;4.33;2.73;;;;;;;18.86;44.82;97381.72;4997543;28;20231;-87
2023/03/15 09:15:20;;;;;;;4.43;2.97;;;;;;;19.69;44.51;97523.31;4979998;28;20208;-86
2023/03/15 09:17:49;;;;;;;4.77;2.73;;;;;;;19.06;44.92;97407.09;4999699;28;20703;-85
2023/03/15 09:20:17;;;;;;;3.57;2.60;;;;;;;19.36;44.83;97464.28;4993618;28;20213;-85
2023/03/15 09:22:49;;;;;;;6.53;2.70;;;;;;;18.81;44.93;97367.94;4972025;28;20203;-85
2023/03/15 09:25:16;;;;;;;3.40;2.50;;;;;;;19.39;45.13;97478.84;4994719;28;20225;-86
2023/03/15 09:27:42;;;;;;;2.77;2.30;;;;;;;19.71;45.06;97537.84;4992086;28;20202;-83
2023/03/15 09:30:10;;;;;;;5.73;2.90;;;;;;;18.89;45.12;97397.94;4991604;28;20690;-86
2023/03/15 09:32:36;;;;;;;3.60;2.40;;;;;;;19.49;45.06;97497.09;4979935;28;20630;-86
2023/03/15 09:35:03;;;;;;;4.73;2.50;;;;;;;19.72;45.18;97547.22;4990860;28;20214;-86
2023/03/15 09:37:30;;;;;;;4.00;2.43;;;;;;;19.44;45.46;97492.59;4969063;28;20282;-87
2023/03/15 09:39:57;;;;;;;5.63;2.80;;;;;;;19.73;45.31;97540.44;4980823;28;20207;-86
2023/03/15 09:42:51;;;;;;;3.83;2.50;;;;;;;19.72;45.43;97542.09;4996685;28;20241;-85
2023/03/15 09:45:24;;;;;;;3.47;2.23;;;;;;;19.72;45.42;97537.00;4981618;28;20811;-86
2023/03/15 09:48:06;;;;;;;4.93;2.27;;;;;;;19.73;45.27;97537.88;4979638;28;20207;-85
2023/03/15 09:50:38;;;;;;;3.67;2.33;;;;;;;19.73;45.34;97545.53;4991528;28;20236;-86
2023/03/15 09:53:10;;;;;;;5.20;2.47;;;;;;;19.71;45.32;97547.16;4987009;28;20233;-86
2023/03/15 09:55:36;;;;;;;3.47;2.67;;;;;;;19.75;45.32;97554.13;5006233;28;20230;-86
2023/03/15 09:58:04;;;;;;;3.97;2.67;;;;;;;18.82;45.47;97390.91;4967755;28;20683;-86
2023/03/15 10:01:04;;;;;;;3.87;2.23;;;;;;;19.24;45.37;97473.13;4982347;28;20202;-86
2023/03/15 10:03:50;;;;;;;3.20;2.20;;;;;;;18.82;45.25;97406.16;4983283;28;20559;-86
2023/03/15 10:06:23;;;;;;;3.30;2.50;;;;;;;19.33;45.63;97491.38;4987760;28;20230;-86
2023/03/15 10:08:52;;;;;;;4.20;2.37;;;;;;;19.75;45.86;97561.78;4973723;28;20210;-86
2023/03/15 10:11:20;;;;;;;3.27;2.43;;;;;;;19.75;45.50;97562.63;4980199;28;20226;-89
2023/03/15 10:13:47;;;;;;;4.17;2.40;;;;;;;19.75;45.56;97561.78;4981436;28;20207;-86
2023/03/15 10:16:13;;;;;;;3.83;2.20;;;;;;;19.76;45.76;97564.38;5000266;28;20743;-88
2023/03/15 10:18:48;;;;;;;3.40;2.77;;;;;;;19.76;45.84;97566.94;4991116;28;20209;-84
2023/03/15 10:21:48;;;;;;;2.80;2.10;;;;;;;19.22;45.41;97462.03;4998212;28;20230;-86
2023/03/15 10:24:40;;;;;;;3.90;2.30;;;;;;;19.76;45.85;97563.50;4988927;28;20215;-85
2023/03/15 10:27:14;;;;;;;13.53;2.47;;;;;;;19.75;45.71;97552.41;4987801;28;20265;-86
2023/03/15 10:29:41;;;;;;;4.33;2.50;;;;;;;19.76;45.36;97551.63;5001613;28;20292;-85
2023/03/15 10:32:16;;;;;;;9.53;2.27;;;;;;;19.76;45.22;97549.06;4995971;28;20222;-86
2023/03/15 10:34:48;;;;;;;3.27;2.07;;;;;;;18.75;45.35;97371.13;4979389;28;20597;-83
2023/03/15 10:37:14;;;;;;;3.47;2.30;;;;;;;16.95;45.22;97061.44;4987106;28;20204;-86
2023/03/15 10:39:45;;;;;;;5.70;2.30;;;;;;;19.76;45.23;97543.97;4967134;28;20203;-87
2023/03/15 10:42:29;;;;;;;4.93;2.00;;;;;;;19.76;45.21;97532.91;4996143;28;20595;-85
2023/03/15 10:44:56;;;;;;;4.17;2.53;;;;;;;19.45;45.33;97482.47;4995750;28;20946;-87
2023/03/15 10:47:23;;;;;;;3.13;2.17;;;;;;;19.76;45.23;97530.34;5000407;28;20202;-86
2023/03/15 10:49:57;;;;;;;4.97;2.10;;;;;;;19.40;45.31;97457.63;4980709;28;20242;-85
2023/03/15 10:52:33;;;;;;;5.77;2.33;;;;;;;19.75;45.27;97534.56;4974688;28;20280;-85
2023/03/15 10:55:26;;;;;;;5.13;2.30;;;;;;;19.65;45.28;97506.13;4997726;28;20717;-86
2023/03/15 10:57:55;;;;;;;4.20;1.97;;;;;;;19.75;45.47;97521.81;4987956;28;20206;-86
2023/03/15 11:00:31;;;;;;;4.27;2.10;;;;;;;19.75;45.66;97516.72;4991324;28;20648;-86
2023/03/15 11:03:17;;;;;;;3.73;2.13;;;;;;;19.77;45.45;97525.31;4984933;28;20651;-86
2023/03/15 11:05:46;;;;;;;5.60;2.10;;;;;;;18.94;45.38;97381.16;4993250;28;20263;-86
2023/03/15 11:08:14;;;;;;;3.13;1.90;;;;;;;19.52;45.46;97471.72;4982058;28;20268;-86
2023/03/15 11:10:43;;;;;;;3.50;2.00;;;;;;;19.23;45.48;97426.41;4977123;28;20302;-83
2023/03/15 11:13:11;;;;;;;4.23;1.90;;;;;;;18.99;45.38;97386.44;4986604;28;20222;-85
2023/03/15 11:15:38;;;;;;;6.30;2.10;;;;;;;19.78;45.49;97515.97;4980388;28;20992;-85
2023/03/15 11:18:05;;;;;;;2.97;2.00;;;;;;;18.40;45.43;97269.69;4991308;28;20233;-84
2023/03/15 11:20:36;;;;;;;4.90;2.00;;;;;;;19.42;45.42;97456.03;4977803;28;20743;-85
2023/03/15 11:23:18;;;;;;;3.73;1.90;;;;;;;17.96;45.50;97203.50;4979026;28;20229;-85
2023/03/15 11:25:44;;;;;;;2.73;1.80;;;;;;;18.70;45.24;97331.88;4976476;28;20223;-87
2023/03/15 11:28:19;;;;;;;5.30;2.10;;;;;;;19.79;45.35;97513.50;4991309;28;20715;-85
2023/03/15 11:30:46;;;;;;;4.63;2.10;;;;;;;19.12;45.35;97401.34;4992873;28;20246;-84
2023/03/15 11:33:42;;;;;;;3.27;2.03;;;;;;;19.80;45.43;97512.66;4978824;28;20236;-85
2023/03/15 11:36:15;;;;;;;3.40;1.70;;;;;;;19.25;45.44;97413.72;4968781;28;20298;-85
2023/03/15 11:38:46;;;;;;;3.13;2.03;;;;;;;18.91;45.46;97341.97;4975895;28;20248;-84
2023/03/15 11:41:24;;;;;;;3.20;1.90;;;;;;;19.74;45.58;97501.38;4985336;28;20229;-85